logo
Search for airport 
image banner adimage banner adimage banner ad
image banner ad

SEES - Endesa

Located in Quito, Ecuador

ICAO - , IATA -

Data provided by Airmate  

General information

Coordinates: S0°17'19" W78°32'27"
Elevation is 9400 feet MSL.
Magnetic variation is -4° East
View others Airports in Pichincha

Operational data

Special qualification required
Current time UTC:
Current local time:
Weather at : SEQM - Quito / Mariscal Sucre Intl ( 28 km )
METAR: SEQM 152300Z 01010KT 9999 FEW010 BKN026 18/14 Q1023 NOSIG RMK A3022
TAF: SEQM 152230Z 1600/1624 VRB03KT 9999 BKN026 BKN090 TEMPO 1602/1603 RA BKN005 BKN026 BECMG 1610/1612 SCT030 BKN100 BECMG 1617/1618 36014KT TEMPO 1621/1623 FEW026TCU BKN030 TX24/1619Z TN12/1611Z
View NOTAMs / SUP AIP / TFR affecting this airport [VIEW]
Communications frequencies: [VIEW]

Runways:

Airport contact information

Address: Quito Ecuador

Satellite view of SEES